Time;durP1;ratioP1;P1;durP2;ratioP2;P2;SDS_P1;SDS_P2;PMS_P1;PMS_P2;Temp;Humidity;BMP_temperature;BMP_pressure;BME280_temperature;BME280_humidity;BME280_pressure;Samples;Min_cycle;Max_cycle;Signal;HPM_P1;HPM_P2
2022/01/22 00:00:48;;;;;;;13.67;3.40;;;;;;;0.38;60.21;100352.91;5003875;28;20034;-72
2022/01/22 00:03:13;;;;;;;10.27;4.43;;;;;;;0.34;60.41;100343.56;5003766;28;20026;-72
2022/01/22 00:05:39;;;;;;;7.00;3.27;;;;;;;0.36;60.30;100343.50;5003760;28;20093;-73
2022/01/22 00:08:05;;;;;;;6.80;3.27;;;;;;;0.23;59.57;100335.50;5003721;28;20037;-73
2022/01/22 00:10:32;;;;;;;6.97;3.10;;;;;;;0.06;60.17;100336.38;5003838;28;20042;-73
2022/01/22 00:15:28;;;;;;;5.67;2.50;;;;;;;-0.05;59.49;100328.28;5014984;28;20315;-72
2022/01/22 00:17:54;;;;;;;7.97;2.80;;;;;;;-0.26;59.60;100332.84;5016854;28;20358;-74
2022/01/22 00:20:22;;;;;;;9.73;2.80;;;;;;;-0.18;59.30;100335.88;5018193;28;20045;-73
2022/01/22 00:22:48;;;;;;;7.43;2.50;;;;;;;-0.27;59.38;100343.31;5020834;28;20040;-72
2022/01/22 00:25:15;;;;;;;8.10;3.03;;;;;;;-0.22;59.89;100338.72;5015422;28;20029;-72
2022/01/22 00:27:43;;;;;;;8.37;2.70;;;;;;;-0.49;59.73;100308.00;5021421;28;20025;-73
2022/01/22 00:30:11;;;;;;;6.33;2.40;;;;;;;-0.35;59.55;100338.50;5020251;28;20061;-73
2022/01/22 00:32:37;;;;;;;6.37;2.87;;;;;;;-0.29;59.34;100319.13;5016570;28;20030;-73
2022/01/22 00:35:04;;;;;;;7.67;2.53;;;;;;;-0.17;59.03;100334.97;5013092;28;20065;-71
2022/01/22 00:37:30;;;;;;;8.87;3.10;;;;;;;-0.44;60.29;100318.16;5012967;28;20029;-72
2022/01/22 00:39:56;;;;;;;8.50;2.60;;;;;;;-0.34;59.73;100316.78;4992317;28;20064;-73
2022/01/22 00:42:22;;;;;;;6.37;3.03;;;;;;;-0.23;59.65;100314.47;5014509;28;20037;-74
2022/01/22 00:44:51;;;;;;;8.77;2.60;;;;;;;-0.32;59.65;100314.94;5015569;28;20036;-73
2022/01/22 00:47:17;;;;;;;6.67;2.47;;;;;;;-0.43;59.73;100319.84;5015458;28;20025;-72
2022/01/22 00:49:42;;;;;;;6.97;2.80;;;;;;;-0.43;59.08;100322.44;5012646;28;20174;-72
2022/01/22 00:52:08;;;;;;;6.43;2.50;;;;;;;-0.44;59.14;100319.00;5015292;28;20033;-73
2022/01/22 00:54:33;;;;;;;4.90;2.37;;;;;;;-0.29;58.27;100326.94;5015283;28;20328;-73
2022/01/22 00:56:59;;;;;;;5.13;2.20;;;;;;;-0.34;57.80;100333.22;5014621;28;20029;-72
2022/01/22 00:59:24;;;;;;;3.53;2.00;;;;;;;-0.33;57.69;100324.50;5017117;28;20037;-71
2022/01/22 01:01:50;;;;;;;9.53;3.97;;;;;;;-0.16;57.17;100325.38;5021069;28;20025;-73
2022/01/22 01:04:16;;;;;;;8.03;2.37;;;;;;;-0.23;57.17;100326.63;5017190;28;20049;-73
2022/01/22 01:06:41;;;;;;;7.93;2.87;;;;;;;-0.02;56.94;100333.31;5015019;28;20034;-73
2022/01/22 01:09:09;;;;;;;6.07;2.70;;;;;;;-0.05;56.87;100333.47;5014829;28;20041;-72
2022/01/22 01:11:39;;;;;;;6.37;2.60;;;;;;;-0.13;56.63;100333.03;5014888;28;20033;-72
2022/01/22 01:14:08;;;;;;;5.70;2.80;;;;;;;-0.20;56.90;100323.88;5012175;28;20038;-73
2022/01/22 01:35:08;;;;;;;8.23;2.60;;;;;;;-0.45;56.05;100313.88;5014477;28;20026;-73
2022/01/22 01:37:34;;;;;;;6.33;2.70;;;;;;;-0.34;55.01;100302.00;5014444;28;20084;-73
2022/01/22 01:40:03;;;;;;;9.30;3.20;;;;;;;-0.27;54.84;100307.72;5007841;28;20042;-72
2022/01/22 01:45:27;;;;;;;5.93;2.63;;;;;;;-0.32;55.19;100291.50;5019353;28;20070;-73
2022/01/22 01:47:55;;;;;;;8.13;2.60;;;;;;;-0.19;54.60;100292.56;5020413;28;20057;-73
2022/01/22 01:50:20;;;;;;;8.23;2.50;;;;;;;-0.10;54.21;100288.63;5011573;28;20044;-72
2022/01/22 01:56:01;;;;;;;4.93;2.27;;;;;;;-0.23;54.94;100298.00;5008855;28;20060;-73
2022/01/22 01:58:30;;;;;;;6.23;2.60;;;;;;;-0.13;54.55;100304.41;5016817;28;20217;-72
2022/01/22 02:00:57;;;;;;;8.23;3.97;;;;;;;-0.26;54.78;100300.75;5002807;28;20255;-72
2022/01/22 02:03:23;;;;;;;6.27;3.20;;;;;;;-0.05;54.37;100299.63;5014956;28;20076;-73
2022/01/22 02:05:50;;;;;;;6.60;3.17;;;;;;;-0.30;54.64;100288.84;5012107;28;20042;-74
2022/01/22 02:08:17;;;;;;;7.63;2.60;;;;;;;-0.16;54.83;100287.19;4998294;28;20029;-72
2022/01/22 02:10:48;;;;;;;9.43;2.67;;;;;;;-0.20;54.65;100277.88;5020327;28;20286;-72
2022/01/22 02:24:12;;;;;;;7.40;2.75;;;;;;;-0.61;55.43;100253.16;5019178;28;20037;-71
2022/01/22 02:26:37;;;;;;;9.93;2.80;;;;;;;-0.66;55.76;100254.25;5017591;28;20101;-73
2022/01/22 02:29:04;;;;;;;8.87;2.70;;;;;;;-0.57;55.81;100254.69;5016880;28;20038;-73
2022/01/22 02:34:07;;;;;;;8.33;2.90;;;;;;;-0.51;55.66;100259.56;5017059;28;20033;-72
2022/01/22 02:36:53;;;;;;;11.47;2.87;;;;;;;-0.52;55.67;100258.72;5016566;28;20346;-73
2022/01/22 02:39:24;;;;;;;6.87;2.30;;;;;;;-0.53;56.13;100259.66;5017290;28;20029;-73
2022/01/22 02:41:52;;;;;;;8.33;2.70;;;;;;;-0.69;56.23;100249.19;5016787;28;20030;-73
2022/01/22 02:44:35;;;;;;;6.90;2.53;;;;;;;-0.50;55.92;100258.66;5014005;28;20018;-72
2022/01/22 02:47:03;;;;;;;10.40;3.20;;;;;;;-0.55;55.60;100256.28;5003365;28;20317;-73
2022/01/22 02:49:29;;;;;;;5.63;2.77;;;;;;;-0.56;55.77;100253.78;5007624;28;20037;-73
2022/01/22 02:51:59;;;;;;;3.83;2.30;;;;;;;-0.75;56.08;100235.66;5024087;28;20208;-74
2022/01/22 02:54:24;;;;;;;7.37;2.40;;;;;;;-0.51;55.98;100257.81;4996243;28;20129;-73
2022/01/22 02:56:49;;;;;;;3.57;1.97;;;;;;;-0.47;55.81;100263.69;5017416;28;20215;-72
2022/01/22 02:59:21;;;;;;;6.93;2.50;;;;;;;-0.56;55.85;100264.16;5018924;28;20286;-72
2022/01/22 03:01:46;;;;;;;6.93;2.80;;;;;;;-0.47;55.67;100263.69;5019398;28;20240;-73
2022/01/22 03:04:12;;;;;;;6.83;3.00;;;;;;;-0.62;56.02;100249.72;5014835;28;20022;-73
2022/01/22 03:06:37;;;;;;;6.80;2.27;;;;;;;-0.37;55.59;100254.50;4993239;28;20219;-72
2022/01/22 03:09:06;;;;;;;8.00;2.50;;;;;;;-0.28;55.41;100254.00;5002610;28;20045;-71
2022/01/22 03:11:41;;;;;;;6.47;3.10;;;;;;;-0.49;55.82;100252.53;5015957;28;20264;-73
2022/01/22 03:17:26;;;;;;;8.43;3.25;;;;;;;-0.78;56.42;100228.88;5020279;28;20037;-72
2022/01/22 03:22:28;;;;;;;7.73;3.13;;;;;;;-0.50;56.20;100246.47;5015835;28;20219;-73
2022/01/22 03:27:37;;;;;;;9.65;2.95;;;;;;;-0.63;56.74;100249.81;5013913;28;20034;-72
2022/01/22 03:30:04;;;;;;;7.00;3.20;;;;;;;-0.79;56.24;100193.38;5015330;28;20037;-72
2022/01/22 03:32:36;;;;;;;7.63;3.60;;;;;;;-0.68;57.04;100243.06;5013076;28;20021;-74
2022/01/22 03:35:24;;;;;;;9.33;2.63;;;;;;;-0.57;56.95;100242.53;5016487;28;20029;-73
2022/01/22 03:37:52;;;;;;;7.10;3.30;;;;;;;-0.63;57.38;100258.44;5014332;28;20033;-72
2022/01/22 03:40:25;;;;;;;5.43;3.20;;;;;;;-0.70;56.91;100229.31;5016099;28;20324;-72
2022/01/22 03:42:52;;;;;;;11.50;3.10;;;;;;;-0.47;56.85;100248.94;5015962;28;20278;-73
2022/01/22 03:45:19;;;;;;;6.90;3.23;;;;;;;-0.46;56.98;100250.59;5013647;28;20037;-73
2022/01/22 03:47:46;;;;;;;6.70;2.70;;;;;;;-0.46;57.29;100255.81;5011969;28;20029;-72
2022/01/22 03:50:13;;;;;;;9.90;3.87;;;;;;;-0.33;56.58;100254.25;5015488;28;20101;-72
2022/01/22 03:52:38;;;;;;;7.93;3.00;;;;;;;-0.44;56.75;100246.16;5016770;28;20021;-73
2022/01/22 03:55:06;;;;;;;12.17;2.97;;;;;;;-0.61;57.23;100247.97;5013955;28;20053;-73
2022/01/22 03:57:32;;;;;;;8.43;2.70;;;;;;;-0.55;57.02;100248.47;5015789;28;20032;-72
2022/01/22 03:59:57;;;;;;;6.67;2.80;;;;;;;-0.54;57.20;100251.94;4996140;28;20034;-72
2022/01/22 04:05:08;;;;;;;5.68;2.80;;;;;;;-0.68;57.08;100240.47;5014905;28;20362;-71
2022/01/22 04:10:21;;;;;;;7.33;2.93;;;;;;;-0.75;56.75;100207.06;5013566;28;20041;-73
2022/01/22 04:13:06;;;;;;;7.03;3.40;;;;;;;-0.39;56.24;100238.97;5009084;28;20014;-73
2022/01/22 04:15:36;;;;;;;6.87;2.90;;;;;;;-0.36;55.81;100228.38;5013199;28;20022;-73
2022/01/22 04:26:26;;;;;;;15.90;4.38;;;;;;;-0.20;55.18;100243.19;5015816;28;20044;-72
2022/01/22 04:28:51;;;;;;;13.73;4.37;;;;;;;-0.33;55.96;100238.63;5015722;28;20226;-72
2022/01/22 04:31:17;;;;;;;18.20;5.23;;;;;;;-0.28;55.77;100235.78;5015531;28;20034;-73
2022/01/22 04:33:42;;;;;;;10.60;4.97;;;;;;;-0.39;56.23;100238.13;5015445;28;20300;-73
2022/01/22 04:36:09;;;;;;;6.70;3.50;;;;;;;-0.51;56.88;100249.16;4995301;28;20022;-72
2022/01/22 04:38:34;;;;;;;9.63;3.63;;;;;;;-0.61;57.38;100245.38;5016628;28;20034;-72
2022/01/22 04:41:00;;;;;;;14.17;5.07;;;;;;;-0.91;57.75;100206.16;5020682;28;20041;-73
2022/01/22 04:43:28;;;;;;;9.27;3.50;;;;;;;-0.72;58.09;100230.31;5019444;28;20033;-73
2022/01/22 04:46:10;;;;;;;7.47;3.10;;;;;;;-0.84;58.55;100238.75;5021745;28;20235;-73
2022/01/22 04:56:32;;;;;;;10.07;4.00;;;;;;;-1.15;59.63;100234.22;5011074;28;19932;-73
2022/01/22 04:58:58;;;;;;;9.60;4.00;;;;;;;-1.25;60.09;100233.81;5014369;28;20100;-71
2022/01/22 05:01:23;;;;;;;10.97;4.90;;;;;;;-1.07;59.79;100239.88;5015968;28;20030;-73
2022/01/22 05:03:48;;;;;;;11.47;4.80;;;;;;;-0.94;58.90;100240.13;5014423;28;20041;-73
2022/01/22 05:06:14;;;;;;;13.70;5.37;;;;;;;-0.99;58.67;100222.16;5014836;28;20033;-73
2022/01/22 05:08:39;;;;;;;9.87;4.57;;;;;;;-0.86;58.92;100246.63;5015037;28;20042;-71
2022/01/22 05:11:05;;;;;;;11.43;4.90;;;;;;;-0.90;58.54;100241.66;5013979;28;20101;-72
2022/01/22 05:13:30;;;;;;;7.53;3.80;;;;;;;-0.76;57.67;100234.00;5012735;28;20300;-73
2022/01/22 05:15:55;;;;;;;10.87;4.10;;;;;;;-0.58;57.29;100232.19;4997158;28;20100;-73
2022/01/22 05:18:21;;;;;;;11.77;4.30;;;;;;;-0.79;57.18;100224.59;5014779;28;20030;-71
2022/01/22 05:20:55;;;;;;;11.67;4.97;;;;;;;-0.77;57.45;100225.34;5015064;28;20244;-72
2022/01/22 05:23:23;;;;;;;12.98;4.97;;;;;;;-0.84;57.17;100220.53;4990642;28;20038;-73
2022/01/22 05:25:55;;;;;;;16.27;4.90;;;;;;;-0.73;56.61;100228.63;5014298;28;20298;-73
2022/01/22 05:39:40;;;;;;;13.63;5.83;;;;;;;-0.43;55.58;100211.41;5012996;28;20209;-72
2022/01/22 05:42:09;;;;;;;13.20;5.80;;;;;;;-0.35;55.60;100217.06;5012522;28;20486;-73
2022/01/22 05:44:35;;;;;;;12.70;6.17;;;;;;;-0.24;55.05;100229.50;5014286;28;20033;-73
2022/01/22 05:47:05;;;;;;;15.70;6.87;;;;;;;-0.57;55.30;100215.66;5014963;28;20028;-71
2022/01/22 05:49:33;;;;;;;19.77;7.37;;;;;;;-0.34;55.62;100226.53;5015988;28;20080;-72
2022/01/22 05:52:01;;;;;;;22.83;7.80;;;;;;;-0.06;54.49;100232.88;5021290;28;20092;-73
2022/01/22 05:59:40;;;;;;;11.93;5.00;;;;;;;-0.58;55.86;100217.44;5016684;28;20083;-73
2022/01/22 06:02:12;;;;;;;17.43;5.60;;;;;;;-0.48;55.75;100207.38;5017515;28;20239;-73
2022/01/22 06:04:38;;;;;;;14.70;5.13;;;;;;;-0.51;55.45;100205.78;5001632;28;20418;-73
2022/01/22 06:07:05;;;;;;;11.90;4.73;;;;;;;-0.46;55.65;100213.34;5018084;28;20038;-72
2022/01/22 06:09:32;;;;;;;13.07;4.93;;;;;;;-0.55;55.57;100193.88;5018986;28;20161;-72
2022/01/22 06:12:16;;;;;;;12.83;4.57;;;;;;;-0.55;56.16;100219.88;5023871;28;20037;-73
2022/01/22 06:14:42;;;;;;;9.88;4.22;;;;;;;-0.49;55.48;100209.16;5020568;28;20242;-73
2022/01/22 06:17:08;;;;;;;19.70;6.70;;;;;;;-0.44;55.78;100206.31;5018230;28;20025;-72
2022/01/22 06:19:33;;;;;;;16.00;6.40;;;;;;;-0.47;55.63;100199.50;5014035;28;20038;-72
2022/01/22 06:21:59;;;;;;;11.83;6.20;;;;;;;-0.55;55.66;100219.03;5017218;28;20303;-72
2022/01/22 06:24:24;;;;;;;15.73;7.40;;;;;;;-0.35;55.83;100203.22;5014486;28;20050;-73
2022/01/22 06:26:50;;;;;;;19.13;7.97;;;;;;;-0.29;55.80;100205.47;5015275;28;20197;-73
2022/01/22 06:29:16;;;;;;;16.80;6.80;;;;;;;-0.17;55.07;100220.44;5020227;28;20105;-72
2022/01/22 06:31:42;;;;;;;16.57;6.37;;;;;;;-0.18;55.23;100217.91;5022470;28;20022;-72
2022/01/22 06:34:08;;;;;;;12.87;5.47;;;;;;;-0.11;55.07;100198.44;5020013;28;20045;-74
2022/01/22 06:36:34;;;;;;;13.43;4.70;;;;;;;-0.04;54.46;100208.44;5017989;28;20022;-73
2022/01/22 06:39:14;;;;;;;11.77;4.20;;;;;;;0.05;54.48;100212.34;5017312;28;20042;-72
2022/01/22 06:41:44;;;;;;;11.17;4.47;;;;;;;0.07;54.72;100200.06;5017201;28;20030;-72
2022/01/22 06:44:21;;;;;;;13.63;4.77;;;;;;;0.11;54.33;100180.75;5016330;28;20045;-73
2022/01/22 06:46:49;;;;;;;14.20;4.53;;;;;;;0.27;53.96;100181.56;5016923;28;20029;-73
2022/01/22 06:49:15;;;;;;;13.17;4.80;;;;;;;0.43;54.43;100186.75;5015202;28;20049;-74
2022/01/22 06:51:41;;;;;;;34.20;5.90;;;;;;;0.60;53.96;100193.59;5017169;28;20071;-73
2022/01/22 06:54:10;;;;;;;18.53;5.70;;;;;;;0.75;53.10;100160.59;5017092;28;20077;-73
2022/01/22 06:56:36;;;;;;;15.87;5.17;;;;;;;1.06;53.06;100181.38;5017674;28;20430;-72
2022/01/22 06:59:02;;;;;;;12.07;4.47;;;;;;;1.18;52.89;100175.41;4992148;28;20037;-72
2022/01/22 07:01:29;;;;;;;12.60;5.07;;;;;;;1.00;52.81;100133.91;5015726;28;20024;-73
2022/01/22 07:03:55;;;;;;;21.20;5.10;;;;;;;1.02;53.69;100172.00;5014976;28;20033;-73
2022/01/22 07:06:21;;;;;;;10.27;4.27;;;;;;;1.27;53.27;100174.03;5015950;28;20220;-72
2022/01/22 07:08:47;;;;;;;7.10;3.30;;;;;;;1.13;52.34;100174.00;5017798;28;20077;-72
2022/01/22 07:11:12;;;;;;;10.97;4.67;;;;;;;0.92;51.73;100156.06;5014580;28;20359;-73
2022/01/22 07:13:38;;;;;;;13.53;3.53;;;;;;;0.92;52.00;100157.84;5017270;28;20022;-73
2022/01/22 07:16:04;;;;;;;21.80;6.63;;;;;;;1.13;51.65;100163.56;5016970;28;20232;-73
2022/01/22 07:18:30;;;;;;;20.43;6.07;;;;;;;1.05;50.71;100164.03;5015801;28;20093;-72
2022/01/22 07:20:56;;;;;;;12.27;4.67;;;;;;;0.85;51.46;100162.59;5017693;28;20034;-74
2022/01/22 07:23:55;;;;;;;13.57;4.60;;;;;;;0.78;51.13;100165.63;5016297;28;20025;-73
2022/01/22 07:26:16;;;;;;;12.23;4.95;;;;;;;0.73;51.41;100162.47;5016910;28;20042;-74
2022/01/22 07:28:42;;;;;;;12.70;4.97;;;;;;;0.71;52.02;100165.16;5017824;28;20255;-73
2022/01/22 07:31:08;;;;;;;13.77;4.47;;;;;;;0.91;51.96;100161.38;5006726;28;20026;-74
2022/01/22 07:33:34;;;;;;;16.93;5.43;;;;;;;1.20;51.07;100157.91;5024153;28;20034;-72
2022/01/22 07:36:00;;;;;;;16.23;4.13;;;;;;;1.43;50.75;100155.66;5024299;28;20327;-73
2022/01/22 07:38:25;;;;;;;11.10;3.90;;;;;;;1.42;50.30;100148.78;5024349;28;20038;-74
2022/01/22 07:40:51;;;;;;;17.60;5.20;;;;;;;1.76;49.96;100131.84;5023950;28;20084;-74
2022/01/22 07:43:17;;;;;;;16.03;4.23;;;;;;;1.74;49.40;100136.31;5022689;28;20037;-74
2022/01/22 07:45:43;;;;;;;12.00;4.93;;;;;;;1.88;48.57;100131.91;5023915;28;20041;-72
2022/01/22 07:48:09;;;;;;;13.97;5.70;;;;;;;1.93;49.12;100132.44;5023724;28;20041;-72
2022/01/22 07:50:34;;;;;;;8.80;3.90;;;;;;;2.28;48.61;100129.38;5023648;28;20064;-73
2022/01/22 07:53:01;;;;;;;6.70;2.83;;;;;;;2.06;47.69;100116.81;5023709;28;20025;-74
2022/01/22 07:55:28;;;;;;;9.67;3.33;;;;;;;1.93;48.05;100122.00;5023607;28;20052;-73
2022/01/22 07:57:53;;;;;;;13.13;3.30;;;;;;;2.04;48.02;100113.47;5022374;28;20210;-74
2022/01/22 08:00:19;;;;;;;12.40;4.23;;;;;;;2.12;47.65;100108.63;5023686;28;20073;-74
2022/01/22 08:02:45;;;;;;;13.87;3.63;;;;;;;1.95;48.21;100118.47;5023467;28;20030;-73
2022/01/22 08:05:11;;;;;;;8.57;2.53;;;;;;;1.64;48.94;100115.19;5005960;28;20038;-72
2022/01/22 08:07:38;;;;;;;12.93;3.40;;;;;;;1.60;50.39;100129.34;5023490;28;20034;-73
2022/01/22 08:10:08;;;;;;;20.47;4.00;;;;;;;1.71;50.14;100103.41;5023421;28;20041;-73
2022/01/22 08:12:35;;;;;;;8.33;3.20;;;;;;;1.92;50.18;100122.94;5023583;28;20304;-73
2022/01/22 08:15:01;;;;;;;14.10;3.37;;;;;;;2.14;50.39;100117.19;5018628;28;20033;-73
2022/01/22 08:17:26;;;;;;;8.50;2.90;;;;;;;2.22;49.97;100108.88;5014134;28;20099;-72
2022/01/22 08:19:53;;;;;;;8.83;4.07;;;;;;;2.41;50.43;100109.34;4990381;28;20066;-72
2022/01/22 08:22:19;;;;;;;12.37;3.23;;;;;;;2.33;50.14;100097.72;4984503;28;20198;-73
2022/01/22 08:24:44;;;;;;;9.97;3.80;;;;;;;2.53;50.39;100112.91;5006632;28;20045;-74
2022/01/22 08:29:42;;;;;;;9.37;2.80;;;;;;;2.47;49.21;100101.09;5003583;28;20034;-74
2022/01/22 08:37:23;;;;;;;8.13;3.00;;;;;;;2.75;48.22;100094.84;5003448;28;20109;-72
2022/01/22 08:39:48;;;;;;;13.93;3.43;;;;;;;2.75;47.93;100094.84;5003031;28;20050;-73
2022/01/22 08:42:14;;;;;;;11.40;4.37;;;;;;;2.72;48.13;100084.59;5003329;28;20037;-73
2022/01/22 08:44:40;;;;;;;7.63;4.73;;;;;;;2.95;48.71;100087.41;5003082;28;20026;-73
2022/01/22 08:47:06;;;;;;;10.53;3.27;;;;;;;2.83;47.83;100092.53;5002696;28;20041;-72
2022/01/22 08:49:32;;;;;;;12.60;3.13;;;;;;;2.99;47.38;100096.72;5003147;28;20352;-74
2022/01/22 08:51:57;;;;;;;8.67;3.40;;;;;;;2.86;47.67;100091.50;5002930;28;20129;-73
2022/01/22 08:54:22;;;;;;;12.33;4.67;;;;;;;3.11;48.17;100085.41;5003199;28;20027;-73
2022/01/22 08:56:48;;;;;;;11.70;4.10;;;;;;;3.01;48.02;100072.13;5002565;28;20220;-74
2022/01/22 08:59:14;;;;;;;22.40;3.20;;;;;;;2.99;48.10;100062.72;5002848;28;20350;-73
2022/01/22 09:01:42;;;;;;;7.07;2.90;;;;;;;3.04;47.50;100078.94;5001828;28;20061;-72
2022/01/22 09:04:08;;;;;;;8.67;2.67;;;;;;;3.13;47.40;100081.78;5002534;28;20105;-72
2022/01/22 09:06:34;;;;;;;9.60;2.63;;;;;;;2.89;48.86;100072.97;5001667;28;20034;-74
2022/01/22 09:09:09;;;;;;;5.43;2.63;;;;;;;3.04;48.38;100066.69;5003218;28;20324;-74
2022/01/22 09:11:34;;;;;;;4.87;1.90;;;;;;;2.95;47.42;100069.09;5002517;28;20189;-73
2022/01/22 09:14:01;;;;;;;7.00;2.00;;;;;;;2.91;47.49;100047.56;4985415;28;20041;-72
2022/01/22 09:16:26;;;;;;;6.00;2.33;;;;;;;2.91;47.13;100051.94;5002739;28;20034;-73
2022/01/22 09:18:54;;;;;;;8.30;2.10;;;;;;;3.10;48.09;100055.78;5001418;28;20037;-73
2022/01/22 09:21:19;;;;;;;16.30;2.77;;;;;;;2.83;48.39;100050.69;5002797;28;20038;-74
2022/01/22 09:23:44;;;;;;;12.30;3.83;;;;;;;3.04;47.73;100053.59;5003076;28;20092;-73
2022/01/22 09:26:10;;;;;;;7.50;2.30;;;;;;;2.97;47.03;100030.59;5002277;28;20046;-73
2022/01/22 09:28:36;;;;;;;8.60;3.10;;;;;;;3.22;47.55;100040.22;5006057;28;20041;-73
2022/01/22 09:31:02;;;;;;;9.20;2.33;;;;;;;3.23;46.79;100028.78;5005650;28;20325;-73
2022/01/22 09:33:28;;;;;;;7.70;2.30;;;;;;;3.31;47.80;100032.53;5006441;28;20240;-74
2022/01/22 09:35:53;;;;;;;9.53;2.40;;;;;;;3.40;47.52;100031.06;4994814;28;20035;-73
2022/01/22 09:38:20;;;;;;;11.03;2.70;;;;;;;3.39;46.67;100029.38;5007009;28;20062;-72
2022/01/22 09:40:46;;;;;;;9.07;2.97;;;;;;;3.27;46.31;99998.84;5006306;28;20045;-74
2022/01/22 09:43:12;;;;;;;6.20;2.33;;;;;;;3.38;45.29;100010.22;5006764;28;20227;-74
2022/01/22 09:45:38;;;;;;;5.90;2.87;;;;;;;3.44;46.38;99986.22;4989114;28;20049;-73
2022/01/22 09:48:04;;;;;;;5.63;2.90;;;;;;;3.44;46.09;100003.72;5006289;28;20308;-72
2022/01/22 09:50:31;;;;;;;13.53;3.07;;;;;;;3.43;45.71;99999.41;4988901;28;20046;-72
2022/01/22 09:52:57;;;;;;;5.20;2.00;;;;;;;3.31;46.54;99981.97;5005159;28;20065;-73
2022/01/22 09:55:23;;;;;;;3.90;1.80;;;;;;;3.31;46.19;99974.97;5005944;28;20022;-74
2022/01/22 09:57:50;;;;;;;7.73;3.20;;;;;;;2.97;47.00;99984.34;5006154;28;20041;-73
2022/01/22 10:00:19;;;;;;;7.63;2.50;;;;;;;2.81;46.04;99979.34;5006246;28;20041;-73
2022/01/22 10:02:47;;;;;;;3.53;2.13;;;;;;;2.76;45.16;99972.78;5005728;28;20057;-74
2022/01/22 10:05:31;;;;;;;3.40;2.00;;;;;;;3.09;46.37;99975.63;5004949;28;20037;-72
2022/01/22 10:08:18;;;;;;;4.38;1.75;;;;;;;3.31;46.68;99956.66;5006211;28;20023;-73
2022/01/22 10:10:45;;;;;;;5.73;2.17;;;;;;;3.33;46.32;99959.16;5005851;28;20042;-73
2022/01/22 10:13:10;;;;;;;11.00;3.53;;;;;;;3.16;45.45;99957.75;5005284;28;20041;-73
2022/01/22 10:15:39;;;;;;;9.07;3.37;;;;;;;2.95;45.62;99961.84;5006007;28;20034;-74
2022/01/22 10:18:06;;;;;;;5.47;2.00;;;;;;;3.06;45.95;99938.38;5005880;28;20034;-73
2022/01/22 10:20:40;;;;;;;7.87;2.60;;;;;;;3.10;45.66;99942.47;4988098;28;20061;-72
2022/01/22 10:23:17;;;;;;;7.97;2.40;;;;;;;3.27;44.94;99946.50;5006037;28;20030;-72
2022/01/22 10:25:48;;;;;;;10.63;3.70;;;;;;;3.44;45.37;99946.13;5005613;28;20069;-73
2022/01/22 10:28:22;;;;;;;7.93;2.90;;;;;;;3.46;43.75;99941.59;5005404;28;20027;-74
2022/01/22 10:31:00;;;;;;;3.35;1.80;;;;;;;3.25;44.20;99949.25;5009989;28;20042;-73
2022/01/22 10:33:32;;;;;;;10.20;3.33;;;;;;;3.05;43.20;99926.25;5010871;28;20050;-73
2022/01/22 10:36:10;;;;;;;8.47;2.77;;;;;;;3.19;44.04;99941.81;5017963;28;20056;-73
2022/01/22 10:38:45;;;;;;;10.07;2.17;;;;;;;3.43;43.11;99932.19;5023837;28;20036;-74
2022/01/22 10:41:12;;;;;;;3.80;1.60;;;;;;;3.25;42.48;99909.97;5024536;28;20048;-73
2022/01/22 10:43:50;;;;;;;10.77;1.90;;;;;;;3.16;39.13;99932.41;5024591;28;20108;-73
2022/01/22 10:46:20;;;;;;;5.47;1.80;;;;;;;3.06;39.19;99920.91;5006844;28;20302;-73
2022/01/22 10:48:58;;;;;;;3.40;1.63;;;;;;;3.12;39.52;99920.50;5024129;28;20045;-73
2022/01/22 10:51:26;;;;;;;4.00;2.00;;;;;;;3.46;39.80;99924.13;5024314;28;20044;-73
2022/01/22 10:53:53;;;;;;;6.60;2.50;;;;;;;3.54;37.97;99920.94;5024276;28;20086;-73
2022/01/22 10:56:22;;;;;;;8.13;2.53;;;;;;;3.19;39.05;99919.13;5022700;28;20076;-73
2022/01/22 10:59:06;;;;;;;6.67;1.97;;;;;;;3.18;39.74;99914.00;5023553;28;20426;-72
2022/01/22 11:01:55;;;;;;;9.60;2.50;;;;;;;3.61;39.43;99908.22;5008796;28;20382;-73
2022/01/22 11:04:26;;;;;;;4.57;2.07;;;;;;;3.91;37.69;99919.03;5004994;28;20098;-73
2022/01/22 11:06:58;;;;;;;2.63;1.90;;;;;;;3.50;38.47;99914.25;5005221;28;20137;-74
2022/01/22 11:09:26;;;;;;;4.10;2.10;;;;;;;3.56;38.00;99905.94;5022274;28;20066;-73
2022/01/22 11:11:53;;;;;;;5.90;2.00;;;;;;;3.75;36.83;99902.78;5012445;28;20029;-72
2022/01/22 11:14:20;;;;;;;6.07;2.43;;;;;;;3.61;37.58;99903.81;5008379;28;20038;-73
2022/01/22 11:16:47;;;;;;;6.00;2.10;;;;;;;3.71;37.30;99902.19;5017338;28;20032;-74
2022/01/22 11:19:18;;;;;;;5.53;2.23;;;;;;;3.51;37.97;99893.19;5023614;28;20033;-73
2022/01/22 11:21:49;;;;;;;10.13;2.53;;;;;;;3.61;38.11;99876.81;5017570;28;20037;-74
2022/01/22 11:24:18;;;;;;;5.37;2.20;;;;;;;3.59;38.38;99882.16;5012433;28;20057;-72
2022/01/22 11:26:50;;;;;;;6.80;2.43;;;;;;;3.70;37.03;99895.28;5023305;28;20029;-72
2022/01/22 11:29:16;;;;;;;5.73;2.00;;;;;;;3.67;38.48;99882.41;5006191;28;20029;-73
2022/01/22 11:31:45;;;;;;;4.07;2.17;;;;;;;3.90;38.58;99879.84;5005715;28;20333;-73
2022/01/22 11:34:14;;;;;;;6.43;2.17;;;;;;;4.03;37.99;99876.19;4991019;28;20033;-73
2022/01/22 11:36:45;;;;;;;6.77;2.03;;;;;;;3.71;36.72;99870.75;5004826;28;20030;-73
2022/01/22 11:39:20;;;;;;;6.17;1.90;;;;;;;3.74;37.04;99872.31;5004726;28;20037;-72
2022/01/22 11:41:54;;;;;;;5.97;2.10;;;;;;;3.55;37.74;99872.03;5004596;28;20046;-72
2022/01/22 11:44:32;;;;;;;4.28;2.08;;;;;;;3.61;37.35;99867.16;5004509;28;20057;-74
2022/01/22 11:47:14;;;;;;;10.77;1.93;;;;;;;3.63;36.93;99873.13;5005265;28;20045;-73
2022/01/22 11:49:40;;;;;;;4.93;1.70;;;;;;;3.79;37.99;99864.94;5017184;28;20323;-72
2022/01/22 11:52:12;;;;;;;4.57;2.27;;;;;;;3.72;38.21;99869.81;5022764;28;20041;-73
2022/01/22 11:55:01;;;;;;;4.13;2.10;;;;;;;3.71;38.30;99864.69;5001352;28;20491;-73
2022/01/22 11:57:31;;;;;;;18.00;5.70;;;;;;;3.44;39.11;99864.97;5013836;28;20061;-73
2022/01/22 12:00:23;;;;;;;5.27;2.43;;;;;;;3.50;38.98;99854.88;5006238;28;20046;-73
2022/01/22 12:03:03;;;;;;;25.77;6.03;;;;;;;3.19;38.47;99853.69;5017787;28;20052;-73
2022/01/22 12:05:29;;;;;;;114.90;19.17;;;;;;;3.30;39.54;99852.06;5022899;28;20611;-73
2022/01/22 12:08:01;;;;;;;21.43;4.37;;;;;;;3.38;38.42;99842.69;5005479;28;20026;-72
2022/01/22 12:10:42;;;;;;;11.47;2.93;;;;;;;3.47;37.60;99852.50;5021790;28;20080;-73
2022/01/22 12:16:11;;;;;;;4.97;1.90;;;;;;;3.21;37.96;99848.34;5022829;28;20077;-74
2022/01/22 12:18:42;;;;;;;4.47;2.60;;;;;;;3.13;37.74;99842.84;5022712;28;20408;-73
2022/01/22 12:21:37;;;;;;;5.40;1.80;;;;;;;3.13;37.25;99850.69;5014698;28;20042;-73
2022/01/22 12:24:10;;;;;;;4.10;1.90;;;;;;;3.41;37.09;99834.63;5011084;28;20110;-72
2022/01/22 12:26:44;;;;;;;6.33;1.80;;;;;;;3.48;36.78;99842.84;5015283;28;20045;-72
2022/01/22 12:29:34;;;;;;;8.05;2.47;;;;;;;3.48;36.61;99846.31;5018831;28;20048;-74
2022/01/22 12:32:07;;;;;;;3.53;2.07;;;;;;;3.68;35.79;99842.19;5021582;28;20042;-73
2022/01/22 12:34:55;;;;;;;7.03;2.20;;;;;;;3.34;35.92;99836.03;5012036;28;20319;-72
2022/01/22 12:37:22;;;;;;;4.47;1.73;;;;;;;3.43;35.66;99845.81;4997808;28;20374;-74
2022/01/22 12:39:52;;;;;;;6.10;1.90;;;;;;;3.31;35.93;99843.28;4998228;28;20045;-73
2022/01/22 12:42:26;;;;;;;4.63;2.30;;;;;;;3.08;36.37;99826.63;5010656;28;20042;-74
2022/01/22 12:45:05;;;;;;;3.40;2.10;;;;;;;3.03;36.82;99839.19;5011459;28;20045;-73
2022/01/22 12:47:31;;;;;;;7.57;2.87;;;;;;;2.98;37.37;99847.38;4985577;28;20027;-73
2022/01/22 12:49:59;;;;;;;7.03;2.60;;;;;;;3.19;37.70;99829.31;5013819;28;20045;-74
2022/01/22 12:52:27;;;;;;;4.70;2.00;;;;;;;3.31;36.79;99846.72;5011921;28;20046;-72
2022/01/22 12:54:57;;;;;;;9.00;1.83;;;;;;;3.35;36.91;99839.47;5012165;28;20128;-74
2022/01/22 12:57:25;;;;;;;6.10;2.17;;;;;;;3.43;37.09;99845.81;5013850;28;20034;-73
2022/01/22 12:59:54;;;;;;;4.87;1.90;;;;;;;3.60;36.85;99838.47;5012117;28;20363;-73
2022/01/22 13:02:20;;;;;;;2.80;1.77;;;;;;;3.45;37.25;99836.06;5009484;28;20053;-73
2022/01/22 13:04:59;;;;;;;4.53;1.93;;;;;;;3.15;36.70;99833.09;5014306;28;20037;-73
2022/01/22 13:07:26;;;;;;;5.90;2.60;;;;;;;3.25;37.12;99851.56;5013248;28;20049;-72
2022/01/22 13:09:55;;;;;;;7.13;1.97;;;;;;;3.28;36.87;99849.56;5010968;28;20034;-73
2022/01/22 13:12:22;;;;;;;7.57;2.50;;;;;;;3.26;36.78;99856.69;4997415;28;20098;-73
2022/01/22 13:14:54;;;;;;;5.03;2.60;;;;;;;3.26;37.26;99848.84;4996910;28;20048;-73